createdAt,value
2022-11-21T00:00:53.004Z,2.20
2022-11-21T00:03:19.976Z,2.60
2022-11-21T00:05:48.962Z,2.20
2022-11-21T00:08:18.545Z,2.20
2022-11-21T00:10:45.795Z,2.10
2022-11-21T00:13:14.711Z,2.10
2022-11-21T00:15:41.351Z,2.00
2022-11-21T00:27:58.141Z,2.60
2022-11-21T00:37:48.517Z,2.00
2022-11-21T00:40:15.417Z,2.00
2022-11-21T00:50:03.580Z,1.90
2022-11-21T00:52:30.148Z,2.10
2022-11-21T01:04:45.101Z,2.20
2022-11-21T01:07:14.287Z,2.10
2022-11-21T01:12:08.171Z,2.20
2022-11-21T01:24:22.943Z,2.70
2022-11-21T01:26:50.886Z,2.20
2022-11-21T01:41:44.502Z,2.50
2022-11-21T01:44:19.182Z,2.40
2022-11-21T01:46:46.336Z,2.40
2022-11-21T01:49:21.877Z,2.40
2022-11-21T01:52:02.164Z,2.40
2022-11-21T01:54:46.835Z,2.40
2022-11-21T01:57:48.499Z,2.40
2022-11-21T02:00:23.785Z,2.40
2022-11-21T02:02:56.066Z,2.40
2022-11-21T02:05:26.197Z,2.60
2022-11-21T02:07:57.207Z,2.50
2022-11-21T02:12:53.404Z,2.50
2022-11-21T02:15:23.090Z,2.50
2022-11-21T02:20:19.519Z,2.50
2022-11-21T02:23:07.938Z,2.50
2022-11-21T02:25:37.126Z,2.40
2022-11-21T02:28:06.957Z,2.50
2022-11-21T02:30:37.763Z,2.50
2022-11-21T02:35:31.843Z,2.50
2022-11-21T02:38:02.001Z,2.50
2022-11-21T02:40:34.363Z,2.60
2022-11-21T02:45:36.569Z,2.60
2022-11-21T02:48:04.403Z,2.70
2022-11-21T02:50:34.059Z,3.00
2022-11-21T02:55:27.884Z,2.60
2022-11-21T03:00:21.830Z,2.60
2022-11-21T03:02:48.764Z,2.50
2022-11-21T03:05:17.957Z,2.50
2022-11-21T03:07:45.840Z,2.50
2022-11-21T03:10:13.109Z,2.60
2022-11-21T03:12:41.078Z,2.50
2022-11-21T03:15:10.479Z,2.50
2022-11-21T03:17:37.522Z,2.60
2022-11-21T03:20:05.076Z,2.80
2022-11-21T03:34:46.671Z,2.60
2022-11-21T03:39:40.240Z,2.60
2022-11-21T03:49:27.761Z,2.50
2022-11-21T03:59:15.388Z,2.50
2022-11-21T04:09:03.597Z,2.40
2022-11-21T04:18:51.267Z,2.60
2022-11-21T04:28:38.981Z,2.60
2022-11-21T04:31:10.917Z,2.60
2022-11-21T04:33:39.359Z,2.50
2022-11-21T04:36:07.773Z,2.50
2022-11-21T04:53:17.040Z,2.40
2022-11-21T05:03:06.004Z,2.30
2022-11-21T05:05:33.012Z,2.30
2022-11-21T05:10:27.016Z,2.30
2022-11-21T05:13:16.421Z,2.30
2022-11-21T05:15:43.052Z,2.40
2022-11-21T05:23:04.128Z,2.40
2022-11-21T05:32:51.891Z,2.30
2022-11-21T05:35:18.487Z,2.50
2022-11-21T05:40:12.341Z,2.60
2022-11-21T05:43:00.377Z,2.60
2022-11-21T05:52:47.970Z,2.80
2022-11-21T06:07:49.174Z,2.40
2022-11-21T06:10:16.158Z,2.30
2022-11-21T06:12:42.749Z,2.20
2022-11-21T06:20:03.844Z,2.30
2022-11-21T06:22:30.394Z,2.20
2022-11-21T06:42:06.885Z,2.20
2022-11-21T06:44:33.655Z,2.20
2022-11-21T06:56:52.357Z,2.00
2022-11-21T07:01:46.037Z,2.10
2022-11-21T07:06:39.672Z,2.30
2022-11-21T07:14:20.299Z,2.50
2022-11-21T07:21:42.977Z,2.50
2022-11-21T07:31:30.728Z,2.70
2022-11-21T07:38:51.269Z,2.80
2022-11-21T08:03:22.556Z,2.70
2022-11-21T08:10:46.868Z,2.90
2022-11-21T08:13:13.902Z,2.90
2022-11-21T08:18:12.721Z,2.80
2022-11-21T08:20:39.529Z,2.80
2022-11-21T08:23:06.927Z,2.80
2022-11-21T08:25:36.434Z,2.80
2022-11-21T08:30:31.160Z,2.70
2022-11-21T08:32:58.780Z,2.70
2022-11-21T08:35:26.389Z,2.70
2022-11-21T08:38:00.441Z,2.70
2022-11-21T08:40:28.827Z,2.60
2022-11-21T08:43:01.151Z,2.80
2022-11-21T08:45:28.377Z,2.80
2022-11-21T08:47:55.573Z,2.80
2022-11-21T08:50:23.107Z,2.80
2022-11-21T08:57:43.934Z,2.70
2022-11-21T09:00:12.606Z,2.70
2022-11-21T09:07:33.576Z,2.70
2022-11-21T09:17:58.749Z,2.70
2022-11-21T09:20:25.507Z,2.80
2022-11-21T09:25:19.627Z,2.70
2022-11-21T09:35:08.798Z,2.90
2022-11-21T09:37:38.516Z,2.90
2022-11-21T09:40:08.701Z,2.80
2022-11-21T09:43:00.625Z,3.00
2022-11-21T09:45:37.251Z,3.10
2022-11-21T09:48:11.135Z,3.10
2022-11-21T09:50:54.393Z,3.00
2022-11-21T09:53:25.782Z,3.00
2022-11-21T09:55:59.976Z,2.90
2022-11-21T09:58:48.524Z,2.90
2022-11-21T10:01:16.641Z,2.90
2022-11-21T10:03:52.224Z,2.90
2022-11-21T10:06:20.484Z,2.90
2022-11-21T10:09:12.896Z,2.90
2022-11-21T10:12:12.851Z,3.00
2022-11-21T10:15:09.625Z,3.00
2022-11-21T10:18:24.544Z,3.20
2022-11-21T10:21:24.194Z,3.10
2022-11-21T10:24:39.725Z,3.00
2022-11-21T10:27:18.323Z,3.00
2022-11-21T10:32:18.532Z,3.10
2022-11-21T10:34:46.595Z,3.20
2022-11-21T10:37:52.005Z,3.20
2022-11-21T10:40:36.957Z,3.10
2022-11-21T10:43:36.869Z,3.10
2022-11-21T10:46:03.519Z,3.20
2022-11-21T10:48:30.143Z,3.20
2022-11-21T10:51:17.111Z,3.30
2022-11-21T10:54:07.618Z,3.20
2022-11-21T10:56:36.060Z,3.30
2022-11-21T10:59:13.821Z,3.40
2022-11-21T11:06:59.725Z,3.30
2022-11-21T11:12:23.924Z,3.40
2022-11-21T11:14:55.688Z,3.40
2022-11-21T11:17:31.318Z,3.50
2022-11-21T11:20:26.606Z,3.50
2022-11-21T11:22:53.180Z,3.50
2022-11-21T11:30:17.418Z,3.60
2022-11-21T11:35:13.857Z,3.70
2022-11-21T11:37:42.599Z,3.70
2022-11-21T11:40:50.889Z,3.80
2022-11-21T11:43:58.387Z,3.80
2022-11-21T11:47:05.518Z,3.70
2022-11-21T11:50:04.736Z,3.70
2022-11-21T11:52:51.591Z,3.70
2022-11-21T11:55:36.519Z,3.70
2022-11-21T11:58:18.543Z,3.80
2022-11-21T12:00:59.997Z,3.90
2022-11-21T12:03:58.872Z,3.90
2022-11-21T12:07:41.171Z,3.90
2022-11-21T12:09:49.364Z,3.90
2022-11-21T12:12:39.226Z,4.00
2022-11-21T12:15:43.458Z,4.00
2022-11-21T12:18:16.264Z,4.00
2022-11-21T12:21:15.232Z,4.00
2022-11-21T12:23:58.804Z,4.10
2022-11-21T12:26:35.695Z,4.20
2022-11-21T12:29:21.227Z,4.30
2022-11-21T12:32:00.159Z,4.30
2022-11-21T12:35:04.462Z,4.30
2022-11-21T12:38:11.141Z,4.30
2022-11-21T12:40:52.182Z,4.30
2022-11-21T12:43:39.712Z,4.40
2022-11-21T12:46:27.961Z,4.40
2022-11-21T12:49:37.057Z,4.40
2022-11-21T12:52:40.183Z,4.40
2022-11-21T12:55:13.315Z,4.40
2022-11-21T12:57:54.844Z,4.40
2022-11-21T13:00:47.058Z,4.30
2022-11-21T13:03:45.511Z,4.40
2022-11-21T13:06:21.208Z,4.40
2022-11-21T13:08:51.509Z,4.50
2022-11-21T13:11:55.919Z,4.50
2022-11-21T13:14:37.690Z,4.50
2022-11-21T13:17:35.756Z,4.60
2022-11-21T13:20:13.700Z,4.50
2022-11-21T13:22:40.452Z,4.60
2022-11-21T13:25:30.113Z,4.60
2022-11-21T13:28:17.350Z,4.60
2022-11-21T13:30:57.376Z,4.60
2022-11-21T13:33:37.043Z,4.60
2022-11-21T13:36:06.243Z,4.60
2022-11-21T13:38:52.831Z,4.60
2022-11-21T13:41:53.352Z,4.70
2022-11-21T13:44:49.902Z,4.70
2022-11-21T13:47:25.834Z,4.70
2022-11-21T13:50:07.879Z,4.70
2022-11-21T13:52:56.007Z,4.70
2022-11-21T13:55:59.515Z,4.70
2022-11-21T13:58:53.327Z,4.60
2022-11-21T14:01:50.888Z,4.60
2022-11-21T14:06:44.798Z,4.60
2022-11-21T14:09:22.520Z,4.70
2022-11-21T14:11:51.111Z,4.60
2022-11-21T14:14:50.584Z,4.60
2022-11-21T14:17:56.510Z,4.60
2022-11-21T14:20:34.289Z,4.60
2022-11-21T14:23:17.379Z,4.60
2022-11-21T14:26:05.834Z,4.60
2022-11-21T14:28:34.925Z,4.60
2022-11-21T14:31:04.728Z,4.60
2022-11-21T14:33:34.600Z,4.70
2022-11-21T14:36:09.864Z,4.60
2022-11-21T14:38:43.793Z,4.60
2022-11-21T14:41:29.233Z,4.60
2022-11-21T14:43:58.531Z,4.50
2022-11-21T14:46:36.975Z,4.60
2022-11-21T14:49:30.213Z,4.40
2022-11-21T14:52:11.969Z,4.60
2022-11-21T14:55:28.054Z,4.60
2022-11-21T14:57:44.932Z,4.50
2022-11-21T15:00:36.025Z,4.50
2022-11-21T15:03:03.248Z,4.50
2022-11-21T15:06:02.198Z,4.50
2022-11-21T15:08:55.792Z,4.40
2022-11-21T15:11:13.359Z,4.40
2022-11-21T15:14:06.589Z,4.40
2022-11-21T15:23:49.240Z,4.30
2022-11-21T15:26:33.807Z,4.30
2022-11-21T15:29:01.441Z,4.20
2022-11-21T15:34:34.385Z,4.20
2022-11-21T15:37:12.127Z,4.10
2022-11-21T15:45:19.832Z,4.10
2022-11-21T15:50:14.967Z,4.00
2022-11-21T15:52:50.637Z,4.00
2022-11-21T15:55:29.231Z,4.00
2022-11-21T15:57:10.578Z,4.00
2022-11-21T16:02:50.366Z,3.90
2022-11-21T16:07:44.260Z,3.70
2022-11-21T16:10:18.412Z,3.70
2022-11-21T16:12:48.333Z,3.70
2022-11-21T16:15:15.252Z,3.70
2022-11-21T16:20:09.527Z,3.60
2022-11-21T16:27:32.369Z,3.50
2022-11-21T16:32:26.904Z,3.40
2022-11-21T16:37:21.613Z,3.40
2022-11-21T16:39:52.100Z,3.20
2022-11-21T16:42:19.649Z,3.30
2022-11-21T16:47:15.389Z,3.10
2022-11-21T16:49:48.341Z,3.20
2022-11-21T16:52:16.049Z,3.10
2022-11-21T16:57:09.846Z,3.20
2022-11-21T17:07:00.828Z,3.10
2022-11-21T17:09:27.554Z,3.10
2022-11-21T17:11:57.551Z,3.20
2022-11-21T17:16:51.288Z,3.10
2022-11-21T17:19:17.858Z,3.10
2022-11-21T17:21:44.434Z,3.10
2022-11-21T17:24:13.458Z,3.10
2022-11-21T17:36:30.120Z,3.00
2022-11-21T17:41:25.172Z,3.00
2022-11-21T17:43:58.815Z,3.10
2022-11-21T17:46:26.444Z,3.10
2022-11-21T17:48:57.098Z,3.10
2022-11-21T17:51:29.778Z,3.10
2022-11-21T17:56:25.831Z,3.00
2022-11-21T17:58:52.553Z,3.00
2022-11-21T18:04:01.522Z,2.90
2022-11-21T18:06:37.049Z,3.10
2022-11-21T18:09:05.817Z,3.00
2022-11-21T18:11:40.046Z,3.00
2022-11-21T18:14:08.923Z,3.10
2022-11-21T18:16:35.800Z,3.00
2022-11-21T18:21:35.341Z,2.90
2022-11-21T18:24:02.193Z,3.00
2022-11-21T18:26:31.773Z,3.00
2022-11-21T18:29:34.497Z,2.90
2022-11-21T18:34:14.203Z,3.00
2022-11-21T18:36:41.245Z,3.00
2022-11-21T18:44:09.781Z,3.10
2022-11-21T18:46:37.353Z,3.10
2022-11-21T18:49:07.425Z,2.90
2022-11-21T18:51:35.585Z,3.10
2022-11-21T18:54:07.024Z,3.10
2022-11-21T18:59:04.259Z,3.00
2022-11-21T19:06:27.723Z,3.10
2022-11-21T19:08:55.828Z,3.20
2022-11-21T19:11:25.217Z,3.20
2022-11-21T19:13:53.678Z,3.20
2022-11-21T19:16:24.513Z,3.20
2022-11-21T19:19:18.615Z,3.20
2022-11-21T19:21:39.741Z,3.20
2022-11-21T19:24:07.591Z,3.30
2022-11-21T19:31:28.680Z,3.30
2022-11-21T19:36:23.950Z,3.30
2022-11-21T19:38:51.811Z,3.30
2022-11-21T19:41:25.279Z,3.40
2022-11-21T19:43:54.414Z,3.40
2022-11-21T19:46:26.532Z,3.40
2022-11-21T19:48:55.615Z,3.40
2022-11-21T19:51:25.367Z,3.40
2022-11-21T19:53:52.248Z,3.40
2022-11-21T19:56:23.760Z,3.40
2022-11-21T19:58:51.139Z,3.50
2022-11-21T20:01:20.266Z,3.50
2022-11-21T20:03:49.866Z,3.50
2022-11-21T20:06:22.902Z,3.50
2022-11-21T20:09:07.285Z,3.50
2022-11-21T20:11:34.457Z,3.60
2022-11-21T20:14:01.433Z,3.60
2022-11-21T20:16:31.189Z,3.60
2022-11-21T20:19:01.002Z,3.70
2022-11-21T20:21:28.411Z,3.70
2022-11-21T20:23:55.543Z,3.60
2022-11-21T20:26:22.957Z,3.70
2022-11-21T20:28:51.045Z,3.60
2022-11-21T20:31:24.795Z,3.70
2022-11-21T20:33:54.350Z,3.70
2022-11-21T20:36:23.427Z,3.70
2022-11-21T20:38:51.205Z,3.60
2022-11-21T20:41:18.994Z,3.70
2022-11-21T20:46:34.504Z,3.90
2022-11-21T20:49:01.631Z,3.50
2022-11-21T20:52:56.056Z,3.70
2022-11-21T20:54:15.172Z,3.70
2022-11-21T20:56:44.404Z,4.20
2022-11-21T21:14:13.889Z,3.80
2022-11-21T21:16:40.635Z,3.90
2022-11-21T21:19:07.244Z,3.90
2022-11-21T21:24:03.348Z,4.00
2022-11-21T21:26:40.432Z,4.00
2022-11-21T21:29:11.183Z,4.20
2022-11-21T21:34:05.126Z,4.00
2022-11-21T21:39:00.257Z,3.90
2022-11-21T21:41:28.860Z,4.00
2022-11-21T21:43:57.270Z,4.00
2022-11-21T21:46:25.894Z,4.00
2022-11-21T21:48:57.263Z,4.00
2022-11-21T21:51:26.741Z,4.00
2022-11-21T21:53:54.935Z,4.00
2022-11-21T21:56:22.747Z,4.10
2022-11-21T21:58:50.105Z,4.00
2022-11-21T22:03:45.173Z,4.10
2022-11-21T22:06:14.300Z,4.00
2022-11-21T22:11:10.678Z,4.10
2022-11-21T22:13:38.655Z,4.10
2022-11-21T22:16:06.690Z,4.10
2022-11-21T22:21:01.089Z,4.10
2022-11-21T22:25:58.024Z,4.10
2022-11-21T22:28:25.120Z,4.20
2022-11-21T22:30:58.923Z,4.20
2022-11-21T22:33:26.813Z,4.20
2022-11-21T22:36:02.438Z,4.20
2022-11-21T22:38:29.217Z,4.20
2022-11-21T22:41:08.012Z,4.30
2022-11-21T22:43:35.302Z,4.20
2022-11-21T22:46:03.117Z,4.30
2022-11-21T22:48:30.394Z,4.30
2022-11-21T22:50:57.385Z,4.10
2022-11-21T22:53:25.021Z,4.30
2022-11-21T22:56:05.138Z,4.30
2022-11-21T22:58:37.063Z,4.20
2022-11-21T23:01:12.325Z,4.30
2022-11-21T23:03:39.622Z,4.30
2022-11-21T23:06:09.930Z,4.40
2022-11-21T23:11:06.584Z,4.40
2022-11-21T23:13:33.953Z,4.40
2022-11-21T23:16:01.284Z,4.40
2022-11-21T23:18:27.832Z,4.30
2022-11-21T23:20:54.631Z,4.40
2022-11-21T23:23:21.841Z,4.40
2022-11-21T23:25:48.421Z,4.50
2022-11-21T23:28:15.015Z,4.40
2022-11-21T23:30:44.423Z,4.50
2022-11-21T23:35:38.339Z,4.60
2022-11-21T23:38:05.019Z,4.60
2022-11-21T23:42:58.627Z,4.60
2022-11-21T23:52:48.573Z,4.80
2022-11-21T23:55:16.240Z,4.80
2022-11-21T23:57:46.832Z,4.70
